createdAt,value
2019-05-07T00:01:17.724Z,2.40
2019-05-07T00:03:45.754Z,3.12
2019-05-07T00:06:13.773Z,2.25
2019-05-07T00:08:44.623Z,3.08
2019-05-07T00:11:12.629Z,2.33
2019-05-07T00:13:44.147Z,2.58
2019-05-07T00:16:12.715Z,2.58
2019-05-07T00:18:40.300Z,3.12
2019-05-07T00:21:08.345Z,2.85
2019-05-07T00:23:36.347Z,3.10
2019-05-07T00:26:04.322Z,2.30
2019-05-07T00:28:32.682Z,2.77
2019-05-07T00:31:02.794Z,2.87
2019-05-07T00:33:32.307Z,2.67
2019-05-07T00:36:28.729Z,3.90
2019-05-07T00:39:04.210Z,3.02
2019-05-07T00:41:42.731Z,3.77
2019-05-07T00:44:13.576Z,2.90
2019-05-07T00:46:42.709Z,2.80
2019-05-07T00:49:12.685Z,2.75
2019-05-07T00:51:42.406Z,2.90
2019-05-07T00:54:12.291Z,2.98
2019-05-07T00:56:40.100Z,2.95
2019-05-07T00:59:08.118Z,3.08
2019-05-07T01:01:36.909Z,3.47
2019-05-07T01:04:04.922Z,3.37
2019-05-07T01:06:33.242Z,3.05
2019-05-07T01:09:03.151Z,2.90
2019-05-07T01:11:33.322Z,3.65
2019-05-07T01:14:02.711Z,3.17
2019-05-07T01:16:32.791Z,3.15
2019-05-07T01:19:01.903Z,3.00
2019-05-07T01:21:32.268Z,2.80
2019-05-07T01:23:59.959Z,3.17
2019-05-07T01:26:27.976Z,3.95
2019-05-07T01:29:03.254Z,3.20
2019-05-07T01:31:34.152Z,3.10
2019-05-07T01:34:13.228Z,3.00
2019-05-07T01:36:42.707Z,2.95
2019-05-07T01:39:12.956Z,3.25
2019-05-07T01:41:41.992Z,3.67
2019-05-07T01:44:10.117Z,3.08
2019-05-07T01:46:38.098Z,2.98
2019-05-07T01:49:06.155Z,2.80
2019-05-07T01:51:34.176Z,3.30
2019-05-07T01:54:02.405Z,3.87
2019-05-07T01:56:30.398Z,3.30
2019-05-07T01:58:58.403Z,3.12
2019-05-07T02:01:26.384Z,2.72
2019-05-07T02:04:19.272Z,3.10
2019-05-07T02:07:05.025Z,2.92
2019-05-07T02:09:39.617Z,3.27
2019-05-07T02:12:19.393Z,3.30
2019-05-07T02:14:47.420Z,3.20
2019-05-07T02:17:15.438Z,3.12
2019-05-07T02:19:43.427Z,3.50
2019-05-07T02:22:13.253Z,3.10
2019-05-07T02:24:43.258Z,3.42
2019-05-07T02:27:12.596Z,3.20
2019-05-07T02:29:42.918Z,3.20
2019-05-07T02:32:12.942Z,3.00
2019-05-07T02:34:43.746Z,3.10
2019-05-07T02:37:12.109Z,2.83
2019-05-07T02:39:57.503Z,3.20
2019-05-07T02:42:25.525Z,3.20
2019-05-07T02:45:19.684Z,2.77
2019-05-07T02:47:47.698Z,3.20
2019-05-07T02:50:37.595Z,3.45
2019-05-07T02:53:18.408Z,3.45
2019-05-07T02:55:49.392Z,2.98
2019-05-07T02:58:17.394Z,3.70
2019-05-07T03:00:45.415Z,3.75
2019-05-07T03:03:13.971Z,3.50
2019-05-07T03:05:43.198Z,3.50
2019-05-07T03:08:13.410Z,3.80
2019-05-07T03:10:43.467Z,3.72
2019-05-07T03:13:13.693Z,4.15
2019-05-07T03:15:43.196Z,3.05
2019-05-07T03:18:13.482Z,4.37
2019-05-07T03:21:04.966Z,3.50
2019-05-07T03:23:42.676Z,2.87
2019-05-07T03:26:15.805Z,3.40
2019-05-07T03:28:54.625Z,3.20
2019-05-07T03:31:36.378Z,3.40
2019-05-07T03:34:09.333Z,3.45
2019-05-07T03:36:48.416Z,3.30
2019-05-07T03:39:16.155Z,2.87
2019-05-07T03:41:44.854Z,3.42
2019-05-07T03:44:19.304Z,3.02
2019-05-07T03:47:01.154Z,3.17
2019-05-07T03:49:34.260Z,2.90
2019-05-07T03:52:04.261Z,3.77
2019-05-07T03:54:34.003Z,3.17
2019-05-07T03:57:09.672Z,4.08
2019-05-07T03:59:33.979Z,3.08
2019-05-07T04:02:03.346Z,3.20
2019-05-07T04:04:33.012Z,3.25
2019-05-07T04:07:02.565Z,3.75
2019-05-07T04:09:29.724Z,3.10
2019-05-07T04:11:57.841Z,3.20
2019-05-07T04:14:25.871Z,3.10
2019-05-07T04:17:04.768Z,3.37
2019-05-07T04:19:23.792Z,3.62
2019-05-07T04:21:53.419Z,3.55
2019-05-07T04:24:42.868Z,3.30
2019-05-07T04:27:23.869Z,3.00
2019-05-07T04:29:53.276Z,3.72
2019-05-07T04:32:23.286Z,3.47
2019-05-07T04:35:15.460Z,3.72
2019-05-07T04:37:43.506Z,2.92
2019-05-07T04:40:13.501Z,3.50
2019-05-07T04:42:42.805Z,3.08
2019-05-07T04:45:13.650Z,3.40
2019-05-07T04:47:44.240Z,3.47
2019-05-07T04:50:13.929Z,3.30
2019-05-07T04:52:43.694Z,4.00
2019-05-07T04:55:13.891Z,3.60
2019-05-07T04:57:43.814Z,3.27
2019-05-07T05:00:13.442Z,3.20
2019-05-07T05:02:58.521Z,3.70
2019-05-07T05:05:27.702Z,6.00
2019-05-07T05:07:55.714Z,3.65
2019-05-07T05:10:23.765Z,4.05
2019-05-07T05:12:53.609Z,4.50
2019-05-07T05:15:22.217Z,3.65
2019-05-07T05:17:53.229Z,3.02
2019-05-07T05:20:22.554Z,3.55
2019-05-07T05:23:02.379Z,3.33
2019-05-07T05:25:36.411Z,3.02
2019-05-07T05:28:04.433Z,3.60
2019-05-07T05:30:42.773Z,4.78
2019-05-07T05:33:12.627Z,2.72
2019-05-07T05:35:42.882Z,3.22
2019-05-07T05:38:12.460Z,2.95
2019-05-07T05:40:42.463Z,4.10
2019-05-07T05:43:19.631Z,5.30
2019-05-07T05:45:48.338Z,7.08
2019-05-07T05:48:16.353Z,8.13
2019-05-07T05:51:05.890Z,5.50
2019-05-07T05:53:45.943Z,6.30
2019-05-07T05:56:35.796Z,8.38
2019-05-07T05:59:27.860Z,9.95
2019-05-07T06:02:29.056Z,7.70
2019-05-07T06:05:15.849Z,7.17
2019-05-07T06:07:52.084Z,8.10
2019-05-07T06:10:44.842Z,7.03
2019-05-07T06:13:18.508Z,8.08
2019-05-07T06:16:03.868Z,11.80
2019-05-07T06:18:59.508Z,7.15
2019-05-07T06:21:58.629Z,18.45
2019-05-07T06:24:37.740Z,16.60
2019-05-07T06:27:06.322Z,17.30
2019-05-07T06:29:34.582Z,22.67
2019-05-07T06:32:06.011Z,17.55
2019-05-07T06:34:34.323Z,11.95
2019-05-07T06:37:02.435Z,10.85
2019-05-07T06:39:36.498Z,13.78
2019-05-07T06:42:22.207Z,11.28
2019-05-07T06:45:04.656Z,13.70
2019-05-07T06:47:32.665Z,10.53
2019-05-07T06:50:03.003Z,15.43
2019-05-07T06:52:31.979Z,12.03
2019-05-07T06:55:00.231Z,9.20
2019-05-07T06:57:30.110Z,9.75
2019-05-07T07:00:02.718Z,10.18
2019-05-07T07:02:44.234Z,9.98
2019-05-07T07:05:42.342Z,8.00
2019-05-07T07:08:17.826Z,9.33
2019-05-07T07:11:06.982Z,8.88
2019-05-07T07:13:34.982Z,11.80
2019-05-07T07:16:03.003Z,8.20
2019-05-07T07:18:32.375Z,9.18
2019-05-07T07:21:02.185Z,8.70
2019-05-07T07:23:32.429Z,7.45
2019-05-07T07:26:00.094Z,6.72
2019-05-07T07:28:28.104Z,8.75
2019-05-07T07:31:05.494Z,8.38
2019-05-07T07:33:37.578Z,6.95
2019-05-07T07:36:05.574Z,8.05
2019-05-07T07:38:33.775Z,6.42
2019-05-07T07:41:22.100Z,6.95
2019-05-07T07:43:49.576Z,5.70
2019-05-07T07:46:17.590Z,6.17
2019-05-07T07:48:45.696Z,5.50
2019-05-07T07:51:14.118Z,9.75
2019-05-07T07:53:42.572Z,9.28
2019-05-07T07:56:48.367Z,5.67
2019-05-07T07:59:08.484Z,6.35
2019-05-07T08:01:48.617Z,5.97
2019-05-07T08:04:16.660Z,5.80
2019-05-07T08:06:46.307Z,5.37
2019-05-07T08:09:14.332Z,5.30
2019-05-07T08:11:42.690Z,7.12
2019-05-07T08:14:12.594Z,4.72
2019-05-07T08:16:42.729Z,5.03
2019-05-07T08:19:21.394Z,5.85
2019-05-07T08:21:42.074Z,4.70
2019-05-07T08:24:12.065Z,6.33
2019-05-07T08:26:39.615Z,5.72
2019-05-07T08:29:07.707Z,5.25
2019-05-07T08:31:46.331Z,4.92
2019-05-07T08:34:22.025Z,4.60
2019-05-07T08:36:50.121Z,6.47
2019-05-07T08:39:19.101Z,6.70
2019-05-07T08:41:47.165Z,5.50
2019-05-07T08:44:19.017Z,3.90
2019-05-07T08:47:07.917Z,4.60
2019-05-07T08:49:40.184Z,4.85
2019-05-07T08:52:06.944Z,3.95
2019-05-07T08:54:35.060Z,5.00
2019-05-07T08:57:03.107Z,4.80
2019-05-07T08:59:32.337Z,4.65
2019-05-07T09:02:03.010Z,7.55
2019-05-07T09:04:32.674Z,10.45
2019-05-07T09:07:02.760Z,7.42
2019-05-07T09:09:32.410Z,8.63
2019-05-07T09:12:02.722Z,8.15
2019-05-07T09:14:32.064Z,6.60
2019-05-07T09:17:02.148Z,7.78
2019-05-07T09:19:32.050Z,5.80
2019-05-07T09:22:02.084Z,7.10
2019-05-07T09:24:29.536Z,8.53
2019-05-07T09:27:22.433Z,8.05
2019-05-07T09:30:15.260Z,6.42
2019-05-07T09:33:02.506Z,5.97
2019-05-07T09:35:39.859Z,7.83
2019-05-07T09:38:08.256Z,13.35
2019-05-07T09:40:36.245Z,9.43
2019-05-07T09:43:04.313Z,8.08
2019-05-07T09:45:32.820Z,7.53
2019-05-07T09:48:02.854Z,7.62
2019-05-07T09:50:32.542Z,7.72
2019-05-07T09:53:02.317Z,11.22
2019-05-07T09:55:32.608Z,6.30
2019-05-07T09:58:02.016Z,5.87
2019-05-07T10:00:32.019Z,4.65
2019-05-07T10:02:59.942Z,6.45
2019-05-07T10:05:27.937Z,7.95
2019-05-07T10:07:55.985Z,7.03
2019-05-07T10:10:24.049Z,6.58
2019-05-07T10:13:01.875Z,6.60
2019-05-07T10:15:30.494Z,5.30
2019-05-07T10:18:07.605Z,6.12
2019-05-07T10:20:35.669Z,6.33
2019-05-07T10:23:03.693Z,6.45
2019-05-07T10:25:41.017Z,5.10
2019-05-07T10:28:09.034Z,7.90
2019-05-07T10:30:37.097Z,5.12
2019-05-07T10:33:05.165Z,6.40
2019-05-07T10:35:33.751Z,5.80
2019-05-07T10:38:02.034Z,6.17
2019-05-07T10:40:30.168Z,8.30
2019-05-07T10:42:58.207Z,5.20
2019-05-07T10:45:53.918Z,5.42
2019-05-07T10:48:28.473Z,5.30
2019-05-07T10:50:57.309Z,5.87
2019-05-07T10:53:25.336Z,5.30
2019-05-07T10:55:53.323Z,6.17
2019-05-07T10:58:21.371Z,7.20
2019-05-07T11:00:49.733Z,5.67
2019-05-07T11:03:17.719Z,6.20
2019-05-07T11:05:45.750Z,5.62
2019-05-07T11:08:13.793Z,6.42
2019-05-07T11:10:41.959Z,5.42
2019-05-07T11:13:10.057Z,4.65
2019-05-07T11:15:38.652Z,5.92
2019-05-07T11:18:17.381Z,5.62
2019-05-07T11:20:50.291Z,5.83
2019-05-07T11:23:15.204Z,5.15
2019-05-07T11:25:43.180Z,4.70
2019-05-07T11:28:12.345Z,4.55
2019-05-07T11:30:42.457Z,4.92
2019-05-07T11:33:12.560Z,6.17
2019-05-07T11:35:42.095Z,3.98
2019-05-07T11:38:18.810Z,4.70
2019-05-07T11:40:39.498Z,4.08
2019-05-07T11:43:14.495Z,4.90
2019-05-07T11:45:58.978Z,3.05
2019-05-07T11:48:27.651Z,3.67
2019-05-07T11:51:20.276Z,3.72
2019-05-07T11:54:13.684Z,3.72
2019-05-07T11:56:42.404Z,3.22
2019-05-07T11:59:13.082Z,2.42
2019-05-07T12:01:47.468Z,3.12
2019-05-07T12:04:13.644Z,3.70
2019-05-07T12:06:41.649Z,3.60
2019-05-07T12:09:11.974Z,3.08
2019-05-07T12:11:39.430Z,3.62
2019-05-07T12:14:07.505Z,3.65
2019-05-07T12:16:35.587Z,5.60
2019-05-07T12:19:03.652Z,3.83
2019-05-07T12:21:32.153Z,4.37
2019-05-07T12:24:02.178Z,3.87
2019-05-07T12:26:30.716Z,4.60
2019-05-07T12:28:58.816Z,5.70
2019-05-07T12:31:45.005Z,4.53
2019-05-07T12:34:20.187Z,4.03
2019-05-07T12:36:48.273Z,3.47
2019-05-07T12:39:16.325Z,5.72
2019-05-07T12:41:44.417Z,6.05
2019-05-07T12:44:13.076Z,4.60
2019-05-07T12:46:42.329Z,6.20
2019-05-07T12:49:12.030Z,3.67
2019-05-07T12:51:59.013Z,3.30
2019-05-07T12:54:42.202Z,3.65
2019-05-07T12:57:11.792Z,3.52
2019-05-07T12:59:39.971Z,5.78
2019-05-07T13:02:39.869Z,4.45
2019-05-07T13:04:59.639Z,3.70
2019-05-07T13:08:01.489Z,3.83
2019-05-07T13:10:29.481Z,5.08
2019-05-07T13:12:57.611Z,4.20
2019-05-07T13:15:28.039Z,4.58
2019-05-07T13:17:55.342Z,4.60
2019-05-07T13:20:23.360Z,4.55
2019-05-07T13:22:51.382Z,4.75
2019-05-07T13:25:19.400Z,3.42
2019-05-07T13:27:47.400Z,3.62
2019-05-07T13:30:15.554Z,4.55
2019-05-07T13:32:45.024Z,4.22
2019-05-07T13:35:13.334Z,3.67
2019-05-07T13:37:45.272Z,4.37
2019-05-07T13:40:34.863Z,3.42
2019-05-07T13:43:11.910Z,4.40
2019-05-07T13:46:02.519Z,4.08
2019-05-07T13:48:31.718Z,3.40
2019-05-07T13:51:01.656Z,2.80
2019-05-07T13:53:29.764Z,3.20
2019-05-07T13:55:57.833Z,3.10
2019-05-07T13:58:25.908Z,3.42
2019-05-07T14:01:15.523Z,3.42
2019-05-07T14:03:43.605Z,2.62
2019-05-07T14:06:12.750Z,2.50
2019-05-07T14:08:43.202Z,2.75
2019-05-07T14:11:12.256Z,3.08
2019-05-07T14:13:43.456Z,2.50
2019-05-07T14:16:12.125Z,2.87
2019-05-07T14:18:40.312Z,2.83
2019-05-07T14:21:08.418Z,3.65
2019-05-07T14:23:36.498Z,3.17
2019-05-07T14:26:04.512Z,2.95
2019-05-07T14:28:32.705Z,3.42
2019-05-07T14:31:01.869Z,3.60
2019-05-07T14:33:55.064Z,3.12
2019-05-07T14:36:31.848Z,3.90
2019-05-07T14:38:59.607Z,2.87
2019-05-07T14:41:27.642Z,2.17
2019-05-07T14:44:09.664Z,2.60
2019-05-07T14:46:47.306Z,2.47
2019-05-07T14:49:07.456Z,2.67
2019-05-07T14:51:35.504Z,3.00
2019-05-07T14:54:03.538Z,2.72
2019-05-07T14:56:32.240Z,3.50
2019-05-07T14:59:02.298Z,3.12
2019-05-07T15:01:30.456Z,2.58
2019-05-07T15:03:58.518Z,2.60
2019-05-07T15:06:27.506Z,3.45
2019-05-07T15:08:55.598Z,2.60
2019-05-07T15:11:23.777Z,2.95
2019-05-07T15:13:52.170Z,3.35
2019-05-07T15:16:22.489Z,3.20
2019-05-07T15:18:57.919Z,3.55
2019-05-07T15:21:25.994Z,3.42
2019-05-07T15:23:53.996Z,4.70
2019-05-07T15:26:22.143Z,5.75
2019-05-07T15:28:54.695Z,4.03
2019-05-07T15:31:27.376Z,7.80
2019-05-07T15:33:55.361Z,6.55
2019-05-07T15:36:23.383Z,10.10
2019-05-07T15:38:52.170Z,6.80
2019-05-07T15:41:20.301Z,11.40
2019-05-07T15:43:52.022Z,9.13
2019-05-07T15:46:19.575Z,8.93
2019-05-07T15:48:47.644Z,9.85
2019-05-07T15:51:16.991Z,10.32
2019-05-07T15:53:52.322Z,6.83
2019-05-07T15:56:21.860Z,5.70
2019-05-07T15:58:51.769Z,8.00
2019-05-07T16:01:22.015Z,5.55
2019-05-07T16:03:54.387Z,5.53
2019-05-07T16:06:21.879Z,5.67
2019-05-07T16:08:55.053Z,4.67
2019-05-07T16:11:23.357Z,5.47
2019-05-07T16:14:17.756Z,5.37
2019-05-07T16:16:47.867Z,5.28
2019-05-07T16:19:24.055Z,5.33
2019-05-07T16:21:52.144Z,5.00
2019-05-07T16:24:22.435Z,5.78
2019-05-07T16:26:52.449Z,6.83
2019-05-07T16:29:22.387Z,4.10
2019-05-07T16:31:51.728Z,5.80
2019-05-07T16:34:21.976Z,4.30
2019-05-07T16:36:53.228Z,8.33
2019-05-07T16:39:26.529Z,4.05
2019-05-07T16:41:54.959Z,3.92
2019-05-07T16:44:23.103Z,4.00
2019-05-07T16:46:53.301Z,3.45
2019-05-07T16:49:22.393Z,6.12
2019-05-07T16:51:52.419Z,4.85
2019-05-07T16:54:20.247Z,5.50
2019-05-07T16:57:05.958Z,3.75
2019-05-07T16:59:34.013Z,5.47
2019-05-07T17:02:06.067Z,4.72
2019-05-07T17:04:34.783Z,4.55
2019-05-07T17:07:06.058Z,3.50
2019-05-07T17:09:35.442Z,3.83
2019-05-07T17:12:05.624Z,4.45
2019-05-07T17:14:33.669Z,3.72
2019-05-07T17:17:02.574Z,3.45
2019-05-07T17:19:31.952Z,4.92
2019-05-07T17:22:02.844Z,3.62
2019-05-07T17:24:30.585Z,3.92
2019-05-07T17:26:58.642Z,5.28
2019-05-07T17:29:26.700Z,4.30
2019-05-07T17:31:54.744Z,7.60
2019-05-07T17:34:22.805Z,5.92
2019-05-07T17:36:52.433Z,4.35
2019-05-07T17:39:22.554Z,4.95
2019-05-07T17:41:51.878Z,4.65
2019-05-07T17:44:20.123Z,5.20
2019-05-07T17:46:51.756Z,4.40
2019-05-07T17:49:19.391Z,5.17
2019-05-07T17:51:48.152Z,4.92
2019-05-07T17:54:16.406Z,3.67
2019-05-07T17:56:44.494Z,6.83
2019-05-07T17:59:12.788Z,8.88
2019-05-07T18:02:11.938Z,10.45
2019-05-07T18:04:50.889Z,11.40
2019-05-07T18:07:12.652Z,9.63
2019-05-07T18:09:42.472Z,7.78
2019-05-07T18:12:12.073Z,11.85
2019-05-07T18:14:42.267Z,11.60
2019-05-07T18:17:27.819Z,9.10
2019-05-07T18:19:55.854Z,7.60
2019-05-07T18:25:51.883Z,6.60
2019-05-07T18:28:21.642Z,6.20
2019-05-07T18:30:49.961Z,4.70
2019-05-07T18:33:30.715Z,4.72
2019-05-07T18:35:58.764Z,6.50
2019-05-07T18:38:26.806Z,6.45
2019-05-07T18:40:54.803Z,3.95
2019-05-07T18:43:22.851Z,9.65
2019-05-07T18:45:51.758Z,7.20
2019-05-07T18:48:19.804Z,3.98
2019-05-07T18:50:47.859Z,6.08
2019-05-07T18:53:15.912Z,7.08
2019-05-07T18:55:43.967Z,4.95
2019-05-07T18:58:13.346Z,5.62
2019-05-07T19:00:45.680Z,4.53
2019-05-07T19:03:13.793Z,6.05
2019-05-07T19:05:42.433Z,5.83
2019-05-07T19:08:12.556Z,5.58
2019-05-07T19:10:42.737Z,5.17
2019-05-07T19:13:10.207Z,4.90
2019-05-07T19:15:38.260Z,4.90
2019-05-07T19:18:06.308Z,5.83
2019-05-07T19:20:34.339Z,5.25
2019-05-07T19:23:02.838Z,5.62
2019-05-07T19:25:32.652Z,5.40
2019-05-07T19:28:02.012Z,5.53
2019-05-07T19:30:32.423Z,5.50
2019-05-07T19:33:00.042Z,6.80
2019-05-07T19:39:03.097Z,7.17
2019-05-07T19:41:33.521Z,7.17
2019-05-07T19:44:02.099Z,7.37
2019-05-07T19:46:30.221Z,6.53
2019-05-07T19:48:58.311Z,7.75
2019-05-07T19:51:26.349Z,8.63
2019-05-07T19:53:54.429Z,7.08
2019-05-07T19:56:24.203Z,8.18
2019-05-07T19:58:52.745Z,6.90
2019-05-07T20:01:25.568Z,6.92
2019-05-07T20:03:55.416Z,6.78
2019-05-07T20:06:25.213Z,7.65
2019-05-07T20:09:12.105Z,6.17
2019-05-07T20:11:42.386Z,6.03
2019-05-07T20:14:28.815Z,6.12
2019-05-07T20:16:56.960Z,6.25
2019-05-07T20:19:25.023Z,6.65
2019-05-07T20:21:53.088Z,5.72
2019-05-07T20:27:32.734Z,5.35
2019-05-07T20:30:09.015Z,5.78
2019-05-07T20:33:03.018Z,5.28
2019-05-07T20:35:29.149Z,5.40
2019-05-07T20:38:03.452Z,6.05
2019-05-07T20:43:26.827Z,5.72
2019-05-07T20:46:11.995Z,5.90
2019-05-07T20:48:42.287Z,5.72
2019-05-07T20:51:13.826Z,5.90
2019-05-07T20:54:15.247Z,7.03
2019-05-07T20:56:51.862Z,6.40
2019-05-07T20:59:21.962Z,5.80
2019-05-07T21:01:52.525Z,5.78
2019-05-07T21:04:22.108Z,7.65
2019-05-07T21:06:49.868Z,6.00
2019-05-07T21:09:17.842Z,5.58
2019-05-07T21:11:47.054Z,7.03
2019-05-07T21:14:17.047Z,6.12
2019-05-07T21:16:46.164Z,6.40
2019-05-07T21:19:14.261Z,6.35
2019-05-07T21:21:42.707Z,8.48
2019-05-07T21:24:13.090Z,5.55
2019-05-07T21:26:42.315Z,5.62
2019-05-07T21:29:13.463Z,5.80
2019-05-07T21:31:43.074Z,6.28
2019-05-07T21:34:12.344Z,5.75
2019-05-07T21:36:42.966Z,6.03
2019-05-07T21:39:10.205Z,5.78
2019-05-07T21:41:42.406Z,5.58
2019-05-07T21:44:09.838Z,6.37
2019-05-07T21:46:37.908Z,7.30
2019-05-07T21:49:06.830Z,7.92
2019-05-07T21:51:35.003Z,6.12
2019-05-07T21:54:09.191Z,7.78
2019-05-07T21:57:08.147Z,5.35
2019-05-07T21:59:37.315Z,5.83
2019-05-07T22:02:12.639Z,6.75
2019-05-07T22:04:42.179Z,5.35
2019-05-07T22:07:12.173Z,6.72
2019-05-07T22:09:40.088Z,5.50
2019-05-07T22:12:08.124Z,6.47
2019-05-07T22:14:36.144Z,5.65
2019-05-07T22:17:04.254Z,5.80
2019-05-07T22:19:38.220Z,6.40
2019-05-07T22:22:06.235Z,6.47
2019-05-07T22:24:34.236Z,5.55
2019-05-07T22:27:04.235Z,6.70
2019-05-07T22:29:32.026Z,5.67
2019-05-07T22:32:18.827Z,6.03
2019-05-07T22:34:55.174Z,7.05
2019-05-07T22:37:23.192Z,6.97
2019-05-07T22:39:51.277Z,8.10
2019-05-07T22:42:19.270Z,6.22
2019-05-07T22:44:47.286Z,7.10
2019-05-07T22:47:22.564Z,5.25
2019-05-07T22:49:53.596Z,5.20
2019-05-07T22:52:22.436Z,5.83
2019-05-07T22:54:50.665Z,5.17
2019-05-07T22:57:42.032Z,5.85
2019-05-07T23:00:13.397Z,5.17
2019-05-07T23:02:42.768Z,5.72
2019-05-07T23:05:12.219Z,5.30
2019-05-07T23:07:41.789Z,4.80
2019-05-07T23:10:11.911Z,5.50
2019-05-07T23:12:39.900Z,6.55
2019-05-07T23:15:07.924Z,6.17
2019-05-07T23:17:35.921Z,5.05
2019-05-07T23:20:03.929Z,6.12
2019-05-07T23:22:32.512Z,4.62
2019-05-07T23:25:00.584Z,4.75
2019-05-07T23:27:28.598Z,7.12
2019-05-07T23:29:56.587Z,4.92
2019-05-07T23:32:24.624Z,5.40
2019-05-07T23:34:52.870Z,5.37
2019-05-07T23:37:22.724Z,4.83
2019-05-07T23:39:52.547Z,4.45
2019-05-07T23:42:24.548Z,5.72
2019-05-07T23:44:52.522Z,6.20
2019-05-07T23:47:22.618Z,5.47
2019-05-07T23:49:52.302Z,4.92
2019-05-07T23:52:22.390Z,4.60
2019-05-07T23:54:52.023Z,5.47
2019-05-07T23:57:19.574Z,4.72
2019-05-07T23:59:47.568Z,6.12
